Time;durP1;ratioP1;P1;durP2;ratioP2;P2;SDS_P1;SDS_P2;PMS_P1;PMS_P2;Temp;Humidity;BMP_temperature;BMP_pressure;BME280_temperature;BME280_humidity;BME280_pressure;Samples;Min_cycle;Max_cycle;Signal;HPM_P1;HPM_P2
2022/01/18 00:00:42;;;;;;;74.97;11.27;;;;;;;;;;5049521;28;20020;-71
2022/01/18 00:03:08;;;;;;;76.15;12.30;;;;;;;;;;5049988;28;20036;-71
2022/01/18 00:05:34;;;;;;;76.55;12.73;;;;;;;;;;5067033;28;20032;-71
2022/01/18 00:08:00;;;;;;;66.70;10.95;;;;;;;;;;5050021;28;20035;-71
2022/01/18 00:10:29;;;;;;;66.72;10.15;;;;;;;;;;5049734;28;20379;-71
2022/01/18 00:18:06;;;;;;;62.15;9.48;;;;;;;;;;5050720;28;20040;-71
2022/01/18 00:23:10;;;;;;;51.20;7.63;;;;;;;;;;5049656;28;20052;-71
2022/01/18 00:25:42;;;;;;;64.78;8.32;;;;;;;;;;5043714;28;20391;-71
2022/01/18 00:28:09;;;;;;;82.78;10.27;;;;;;;;;;5049496;28;20033;-71
2022/01/18 00:35:57;;;;;;;65.65;8.23;;;;;;;;;;5049940;28;20499;-69
2022/01/18 00:38:55;;;;;;;61.42;7.60;;;;;;;;;;5044806;28;20411;-71
2022/01/18 00:41:15;;;;;;;64.27;8.20;;;;;;;;;;5046199;28;20127;-70
2022/01/18 00:43:45;;;;;;;64.35;8.13;;;;;;;;;;5049431;28;20023;-71
2022/01/18 00:46:13;;;;;;;76.75;8.77;;;;;;;;;;5080744;28;20079;-69
2022/01/18 00:48:39;;;;;;;70.72;8.40;;;;;;;;;;5048790;28;20480;-70
2022/01/18 00:51:12;;;;;;;85.53;8.80;;;;;;;;;;5049573;28;20086;-70
2022/01/18 00:53:39;;;;;;;83.15;9.07;;;;;;;;;;5053351;28;20468;-70
2022/01/18 00:56:18;;;;;;;74.20;8.85;;;;;;;;;;5049865;28;20035;-70
2022/01/18 00:58:44;;;;;;;98.90;9.63;;;;;;;;;;5048822;28;20024;-70
2022/01/18 01:01:14;;;;;;;124.65;10.45;;;;;;;;;;5048243;28;20035;-70
2022/01/18 01:03:40;;;;;;;86.15;10.40;;;;;;;;;;5042892;28;20119;-71
2022/01/18 01:06:07;;;;;;;68.60;9.35;;;;;;;;;;5049492;28;20027;-71
2022/01/18 01:08:34;;;;;;;98.05;9.50;;;;;;;;;;5048772;28;20028;-70
2022/01/18 01:10:59;;;;;;;105.90;10.27;;;;;;;;;;5048984;28;20382;-70
2022/01/18 01:13:26;;;;;;;105.93;10.00;;;;;;;;;;5048645;28;20059;-70
2022/01/18 01:18:49;;;;;;;80.00;8.80;;;;;;;;;;5048488;28;20042;-70
2022/01/18 01:34:45;;;;;;;78.82;7.93;;;;;;;;;;5045859;28;20052;-69
2022/01/18 01:42:54;;;;;;;84.95;10.43;;;;;;;;;;5048249;28;20204;-70
2022/01/18 01:45:16;;;;;;;77.20;8.25;;;;;;;;;;5048358;28;20036;-70
2022/01/18 01:47:49;;;;;;;70.57;8.10;;;;;;;;;;5080690;28;20032;-70
2022/01/18 01:50:19;;;;;;;66.85;7.25;;;;;;;;;;5048592;28;20470;-70
2022/01/18 01:52:45;;;;;;;76.63;7.70;;;;;;;;;;5048191;28;20032;-70
2022/01/18 01:55:13;;;;;;;77.57;8.00;;;;;;;;;;5047706;28;20179;-69
2022/01/18 01:57:39;;;;;;;87.80;8.82;;;;;;;;;;5052414;28;20081;-70
2022/01/18 02:00:06;;;;;;;70.88;7.88;;;;;;;;;;5048599;28;20032;-69
2022/01/18 02:02:31;;;;;;;91.60;9.68;;;;;;;;;;5046199;28;20605;-71
2022/01/18 02:04:59;;;;;;;74.40;8.50;;;;;;;;;;5051724;28;20123;-70
2022/01/18 02:07:25;;;;;;;82.82;8.90;;;;;;;;;;5047099;28;20020;-70
2022/01/18 02:09:50;;;;;;;93.88;7.32;;;;;;;;;;5059341;28;20086;-69
2022/01/18 02:12:18;;;;;;;90.20;7.90;;;;;;;;;;5031533;28;20097;-70
2022/01/18 02:14:53;;;;;;;130.88;10.25;;;;;;;;;;5080021;28;20032;-70
2022/01/18 02:23:06;;;;;;;98.72;9.25;;;;;;;;;;5024078;28;20412;-72
2022/01/18 02:25:32;;;;;;;84.72;9.07;;;;;;;;;;5004853;28;20038;-70
2022/01/18 02:27:57;;;;;;;91.28;9.65;;;;;;;;;;5005253;28;20040;-70
2022/01/18 02:30:22;;;;;;;92.25;8.50;;;;;;;;;;5004380;28;20033;-70
2022/01/18 02:32:50;;;;;;;71.38;8.88;;;;;;;;;;5004256;28;20457;-69
2022/01/18 02:35:18;;;;;;;87.18;8.80;;;;;;;;;;5004156;28;20065;-70
2022/01/18 02:37:50;;;;;;;102.93;10.75;;;;;;;;;;5004662;28;20394;-71
2022/01/18 02:40:16;;;;;;;82.50;8.55;;;;;;;;;;5004593;28;22002;-70
2022/01/18 02:42:45;;;;;;;97.95;10.25;;;;;;;;;;4991848;28;20041;-71
2022/01/18 02:45:10;;;;;;;75.97;7.85;;;;;;;;;;5003809;28;20030;-71
2022/01/18 02:47:36;;;;;;;82.07;9.05;;;;;;;;;;5004985;28;20034;-72
2022/01/18 02:50:01;;;;;;;93.78;9.07;;;;;;;;;;5003017;28;20037;-72
2022/01/18 02:52:29;;;;;;;85.88;8.70;;;;;;;;;;5018245;28;20215;-71
2022/01/18 02:54:54;;;;;;;116.35;11.55;;;;;;;;;;5003965;28;20446;-71
2022/01/18 02:57:26;;;;;;;71.63;9.05;;;;;;;;;;4991167;28;20358;-71
2022/01/18 03:00:44;;;;;;;103.30;9.50;;;;;;;;;;5003753;28;20120;-71
2022/01/18 03:05:29;;;;;;;69.72;8.23;;;;;;;;;;5016045;28;20037;-71
2022/01/18 03:07:55;;;;;;;85.68;9.57;;;;;;;;;;5003681;28;20029;-71
2022/01/18 03:10:20;;;;;;;82.35;8.23;;;;;;;;;;5003173;28;20026;-71
2022/01/18 03:12:50;;;;;;;88.70;9.75;;;;;;;;;;5003388;28;20022;-71
2022/01/18 03:15:16;;;;;;;56.45;8.50;;;;;;;;;;4992291;28;20117;-71
2022/01/18 03:17:41;;;;;;;82.93;9.88;;;;;;;;;;5003242;28;20098;-71
2022/01/18 03:20:10;;;;;;;79.47;8.35;;;;;;;;;;5007079;28;20135;-71
2022/01/18 03:22:36;;;;;;;76.47;8.38;;;;;;;;;;5003664;28;20042;-71
2022/01/18 03:25:14;;;;;;;78.53;7.85;;;;;;;;;;5018746;28;20680;-71
2022/01/18 03:30:26;;;;;;;73.97;7.80;;;;;;;;;;5003840;28;20029;-71
2022/01/18 03:32:54;;;;;;;72.03;8.70;;;;;;;;;;4998364;28;20516;-71
2022/01/18 03:35:21;;;;;;;76.85;7.05;;;;;;;;;;4988628;28;20038;-71
2022/01/18 03:37:46;;;;;;;92.68;8.40;;;;;;;;;;4988774;28;20068;-71
2022/01/18 03:40:14;;;;;;;76.28;8.23;;;;;;;;;;5003257;28;20049;-71
2022/01/18 03:42:48;;;;;;;78.90;9.60;;;;;;;;;;4989980;28;20037;-71
2022/01/18 03:45:23;;;;;;;87.22;8.65;;;;;;;;;;4978042;28;20040;-71
2022/01/18 03:47:48;;;;;;;75.80;7.65;;;;;;;;;;4990028;28;20471;-71
2022/01/18 03:50:17;;;;;;;83.75;8.15;;;;;;;;;;4989041;28;20307;-71
2022/01/18 03:52:45;;;;;;;73.15;8.45;;;;;;;;;;4989719;28;20084;-71
2022/01/18 03:55:12;;;;;;;82.72;8.13;;;;;;;;;;4988263;28;20144;-71
2022/01/18 03:57:37;;;;;;;76.20;8.70;;;;;;;;;;4990105;28;20029;-71
2022/01/18 04:00:07;;;;;;;85.88;9.30;;;;;;;;;;4987918;28;20037;-71
2022/01/18 04:02:33;;;;;;;79.30;8.35;;;;;;;;;;4989301;28;20061;-71
2022/01/18 04:04:59;;;;;;;82.25;10.32;;;;;;;;;;4993515;28;20038;-70
2022/01/18 04:07:24;;;;;;;78.60;8.43;;;;;;;;;;4977170;28;20045;-71
2022/01/18 04:09:52;;;;;;;53.17;7.85;;;;;;;;;;4989226;28;20033;-71
2022/01/18 04:12:18;;;;;;;86.53;8.73;;;;;;;;;;4989809;28;20046;-70
2022/01/18 04:14:44;;;;;;;91.53;9.75;;;;;;;;;;4988666;28;20541;-69
2022/01/18 04:27:46;;;;;;;61.90;8.70;;;;;;;;;;4988958;28;20040;-69
2022/01/18 04:30:12;;;;;;;61.95;8.27;;;;;;;;;;4989452;28;20442;-69
2022/01/18 04:32:39;;;;;;;67.38;8.88;;;;;;;;;;4988259;28;20033;-69
2022/01/18 04:35:05;;;;;;;76.90;8.68;;;;;;;;;;4988485;28;20389;-69
2022/01/18 04:37:34;;;;;;;56.85;7.65;;;;;;;;;;4989737;28;20072;-69
2022/01/18 04:40:07;;;;;;;56.78;8.50;;;;;;;;;;4987239;28;20155;-69
2022/01/18 04:51:10;;;;;;;50.38;7.57;;;;;;;;;;4978581;28;20556;-69
2022/01/18 04:53:41;;;;;;;53.20;7.53;;;;;;;;;;4962911;28;20064;-69
2022/01/18 04:56:11;;;;;;;64.13;9.57;;;;;;;;;;4977286;28;20518;-69
2022/01/18 04:58:37;;;;;;;66.80;9.07;;;;;;;;;;4992229;28;20201;-69
2022/01/18 05:01:03;;;;;;;60.45;9.55;;;;;;;;;;4987370;28;20034;-68
2022/01/18 05:03:29;;;;;;;61.03;9.00;;;;;;;;;;4987867;28;20033;-70
2022/01/18 05:05:57;;;;;;;85.35;9.07;;;;;;;;;;4988377;28;20030;-68
2022/01/18 05:08:23;;;;;;;86.22;11.05;;;;;;;;;;5003398;28;21844;-68
2022/01/18 05:10:56;;;;;;;81.82;9.20;;;;;;;;;;4992799;28;20592;-69
2022/01/18 05:16:53;;;;;;;65.13;8.80;;;;;;;;;;5002158;28;20049;-69
2022/01/18 05:19:41;;;;;;;74.80;9.68;;;;;;;;;;4985602;28;20404;-70
2022/01/18 05:24:24;;;;;;;77.38;10.70;;;;;;;;;;4988266;28;20453;-70
2022/01/18 05:26:50;;;;;;;73.70;10.10;;;;;;;;;;4987888;28;20045;-69
2022/01/18 05:29:16;;;;;;;62.22;7.95;;;;;;;;;;4976146;28;20146;-69
2022/01/18 05:31:44;;;;;;;62.03;6.72;;;;;;;;;;5002070;28;20045;-69
2022/01/18 05:34:12;;;;;;;68.63;7.95;;;;;;;;;;4987187;28;20029;-69
2022/01/18 05:36:40;;;;;;;150.90;10.65;;;;;;;;;;5002836;28;20147;-69
2022/01/18 05:39:09;;;;;;;243.45;15.98;;;;;;;;;;4987615;28;20489;-69
2022/01/18 05:41:38;;;;;;;277.52;13.32;;;;;;;;;;4988346;28;20041;-69
2022/01/18 05:44:04;;;;;;;142.50;10.68;;;;;;;;;;4987541;28;20025;-69
2022/01/18 05:46:30;;;;;;;173.45;9.23;;;;;;;;;;4987065;28;20110;-69
2022/01/18 05:49:01;;;;;;;124.88;8.57;;;;;;;;;;4987725;28;20037;-69
2022/01/18 05:51:26;;;;;;;137.32;8.07;;;;;;;;;;4988256;28;20213;-69
2022/01/18 05:53:52;;;;;;;121.90;10.30;;;;;;;;;;4988446;28;20253;-69
2022/01/18 05:56:18;;;;;;;48.85;7.75;;;;;;;;;;4987482;28;20045;-69
2022/01/18 05:58:45;;;;;;;124.65;8.20;;;;;;;;;;4986530;28;20061;-69
2022/01/18 06:01:10;;;;;;;59.22;6.80;;;;;;;;;;4987082;28;20025;-69
2022/01/18 06:03:50;;;;;;;84.15;8.73;;;;;;;;;;4987677;28;20044;-69
2022/01/18 06:09:02;;;;;;;113.03;9.25;;;;;;;;;;4987391;28;20100;-68
2022/01/18 06:11:28;;;;;;;61.78;7.22;;;;;;;;;;4987972;28;20038;-69
2022/01/18 06:13:53;;;;;;;181.48;11.32;;;;;;;;;;4991019;28;20335;-69
2022/01/18 06:16:21;;;;;;;205.05;11.40;;;;;;;;;;4986833;28;20030;-68
2022/01/18 06:18:46;;;;;;;144.77;10.02;;;;;;;;;;4985613;28;20044;-69
2022/01/18 06:21:14;;;;;;;129.35;9.98;;;;;;;;;;4986061;28;20081;-68
2022/01/18 06:23:40;;;;;;;189.75;10.25;;;;;;;;;;4986676;28;20026;-69
2022/01/18 06:26:07;;;;;;;147.82;10.30;;;;;;;;;;4986869;28;20464;-69
2022/01/18 06:28:34;;;;;;;79.22;8.52;;;;;;;;;;4985858;28;20037;-68
2022/01/18 06:30:59;;;;;;;90.90;10.90;;;;;;;;;;5001987;28;20057;-68
2022/01/18 06:33:25;;;;;;;144.65;12.35;;;;;;;;;;4986361;28;20247;-69
2022/01/18 06:35:50;;;;;;;170.32;12.75;;;;;;;;;;4975851;28;20030;-69
2022/01/18 06:38:16;;;;;;;263.33;17.42;;;;;;;;;;4987544;28;20042;-69
2022/01/18 06:40:41;;;;;;;252.40;12.57;;;;;;;;;;4986423;28;20049;-70
2022/01/18 06:43:11;;;;;;;193.60;11.05;;;;;;;;;;4986773;28;20101;-69
2022/01/18 06:45:38;;;;;;;144.63;13.57;;;;;;;;;;4987714;28;20291;-69
2022/01/18 06:48:04;;;;;;;315.77;15.98;;;;;;;;;;4986865;28;20045;-69
2022/01/18 06:50:29;;;;;;;141.70;11.98;;;;;;;;;;4986048;28;20103;-69
2022/01/18 06:52:55;;;;;;;133.77;14.32;;;;;;;;;;4987120;28;20084;-69
2022/01/18 06:55:20;;;;;;;113.00;13.82;;;;;;;;;;4985114;28;20543;-69
2022/01/18 06:57:45;;;;;;;199.10;13.93;;;;;;;;;;4986743;28;20038;-69
2022/01/18 07:00:11;;;;;;;218.23;10.27;;;;;;;;;;4975128;28;20457;-68
2022/01/18 07:02:37;;;;;;;202.98;13.68;;;;;;;;;;4986711;28;20041;-70
2022/01/18 07:05:05;;;;;;;193.30;14.65;;;;;;;;;;4986261;28;20037;-68
2022/01/18 07:07:32;;;;;;;81.68;7.70;;;;;;;;;;4987249;28;20056;-69
2022/01/18 07:09:58;;;;;;;198.77;11.65;;;;;;;;;;5003789;28;20522;-69
2022/01/18 07:12:25;;;;;;;187.07;13.30;;;;;;;;;;4990161;28;20037;-69
2022/01/18 07:14:51;;;;;;;360.42;20.77;;;;;;;;;;4990722;28;20037;-69
2022/01/18 07:17:18;;;;;;;563.00;30.55;;;;;;;;;;4989598;28;20539;-69
2022/01/18 07:19:44;;;;;;;621.95;33.40;;;;;;;;;;4990214;28;20045;-69
2022/01/18 07:22:10;;;;;;;679.88;37.42;;;;;;;;;;4977719;28;20054;-69
2022/01/18 07:24:38;;;;;;;224.85;20.75;;;;;;;;;;4989461;28;20127;-69
2022/01/18 07:27:07;;;;;;;651.78;34.08;;;;;;;;;;4989640;28;20502;-69
2022/01/18 07:29:33;;;;;;;479.33;28.08;;;;;;;;;;4990329;28;20096;-68
2022/01/18 07:32:01;;;;;;;206.30;19.33;;;;;;;;;;4989703;28;20030;-68
2022/01/18 07:34:27;;;;;;;86.43;16.35;;;;;;;;;;4989835;28;20026;-69
2022/01/18 07:36:52;;;;;;;143.50;19.80;;;;;;;;;;4989986;28;20135;-69
2022/01/18 07:39:19;;;;;;;108.55;20.90;;;;;;;;;;4990491;28;20018;-69
2022/01/18 07:41:47;;;;;;;266.08;23.17;;;;;;;;;;4977283;28;20053;-69
2022/01/18 07:44:13;;;;;;;165.73;18.73;;;;;;;;;;4989539;28;20347;-69
2022/01/18 07:46:41;;;;;;;250.63;19.90;;;;;;;;;;4989848;28;20390;-70
2022/01/18 07:49:06;;;;;;;121.28;13.05;;;;;;;;;;4987429;28;20101;-70
2022/01/18 07:51:33;;;;;;;219.65;18.38;;;;;;;;;;4990229;28;20553;-70
2022/01/18 07:53:59;;;;;;;367.02;24.17;;;;;;;;;;4989502;28;20220;-70
2022/01/18 07:56:26;;;;;;;75.80;16.13;;;;;;;;;;4989523;28;20036;-71
2022/01/18 07:58:52;;;;;;;301.67;24.05;;;;;;;;;;4989103;28;20444;-71
2022/01/18 08:01:20;;;;;;;236.82;23.08;;;;;;;;;;4977381;28;20126;-70
2022/01/18 08:03:46;;;;;;;173.15;22.80;;;;;;;;;;4989770;28;20025;-70
2022/01/18 08:06:11;;;;;;;300.13;27.17;;;;;;;;;;4989508;28;20508;-72
2022/01/18 08:08:39;;;;;;;146.43;20.55;;;;;;;;;;4977475;28;20029;-70
2022/01/18 08:11:05;;;;;;;153.23;21.98;;;;;;;;;;4987618;28;20025;-70
2022/01/18 08:13:37;;;;;;;220.40;25.73;;;;;;;;;;4989427;28;20072;-70
2022/01/18 08:19:00;;;;;;;377.08;31.48;;;;;;;;;;4974181;28;20105;-71
2022/01/18 08:21:26;;;;;;;401.80;34.00;;;;;;;;;;4992573;28;20049;-70
2022/01/18 08:23:52;;;;;;;544.90;39.42;;;;;;;;;;4987777;28;20522;-70
2022/01/18 08:26:22;;;;;;;372.45;37.63;;;;;;;;;;4988310;28;20406;-70
2022/01/18 08:28:50;;;;;;;272.58;35.60;;;;;;;;;;4989506;28;20037;-71
2022/01/18 08:31:17;;;;;;;327.50;34.28;;;;;;;;;;4993508;28;20660;-70
2022/01/18 08:33:45;;;;;;;401.58;33.08;;;;;;;;;;4976746;28;20033;-71
2022/01/18 08:36:13;;;;;;;265.98;26.77;;;;;;;;;;4988845;28;20430;-71
2022/01/18 08:38:39;;;;;;;470.02;35.53;;;;;;;;;;4989029;28;20038;-70
2022/01/18 08:41:05;;;;;;;401.45;29.15;;;;;;;;;;4988862;28;20053;-70
2022/01/18 08:43:36;;;;;;;352.75;23.65;;;;;;;;;;4988373;28;20042;-71
2022/01/18 08:46:03;;;;;;;305.85;19.50;;;;;;;;;;4993510;28;20026;-71
2022/01/18 08:48:29;;;;;;;188.55;14.63;;;;;;;;;;4988204;28;20448;-71
2022/01/18 08:50:54;;;;;;;218.05;19.98;;;;;;;;;;4992848;28;20035;-70
2022/01/18 08:53:20;;;;;;;334.40;28.98;;;;;;;;;;4987768;28;20346;-70
2022/01/18 08:55:45;;;;;;;183.40;32.50;;;;;;;;;;4988833;28;20053;-70
2022/01/18 08:58:11;;;;;;;941.70;86.95;;;;;;;;;;4987886;28;20025;-70
2022/01/18 09:00:36;;;;;;;378.40;53.80;;;;;;;;;;4988789;28;20037;-70
2022/01/18 09:03:02;;;;;;;580.25;62.60;;;;;;;;;;4988490;28;20037;-70
2022/01/18 09:05:30;;;;;;;565.20;73.35;;;;;;;;;;4988427;28;20026;-71
2022/01/18 09:08:05;;;;;;;423.48;67.72;;;;;;;;;;4988717;28;20166;-70
2022/01/18 09:10:30;;;;;;;295.38;76.05;;;;;;;;;;4987334;28;20037;-70
2022/01/18 09:12:55;;;;;;;296.52;90.57;;;;;;;;;;4988345;28;20026;-70
2022/01/18 09:15:25;;;;;;;321.63;97.03;;;;;;;;;;4976376;28;20042;-69
2022/01/18 09:17:50;;;;;;;263.30;96.40;;;;;;;;;;4976363;28;20042;-70
2022/01/18 09:20:18;;;;;;;198.32;69.22;;;;;;;;;;4987980;28;20138;-69
2022/01/18 09:22:44;;;;;;;253.27;57.35;;;;;;;;;;4987587;28;20136;-70
2022/01/18 09:25:21;;;;;;;273.88;56.10;;;;;;;;;;4988197;28;20041;-70
2022/01/18 09:27:47;;;;;;;245.48;53.55;;;;;;;;;;4984472;28;20058;-70
2022/01/18 09:30:15;;;;;;;227.10;47.85;;;;;;;;;;4991452;28;20040;-69
2022/01/18 09:32:43;;;;;;;219.80;47.58;;;;;;;;;;4977177;28;20128;-70
2022/01/18 09:35:09;;;;;;;177.60;45.53;;;;;;;;;;4987767;28;20409;-70
2022/01/18 09:37:34;;;;;;;219.82;48.85;;;;;;;;;;4987577;28;20076;-71
2022/01/18 09:40:00;;;;;;;189.52;47.35;;;;;;;;;;4986701;28;20417;-69
2022/01/18 09:42:33;;;;;;;171.93;44.30;;;;;;;;;;4976012;28;20133;-71
2022/01/18 09:45:09;;;;;;;162.00;43.03;;;;;;;;;;4989110;28;20079;-71
2022/01/18 09:47:35;;;;;;;130.00;41.05;;;;;;;;;;5001691;28;20030;-70
2022/01/18 09:50:01;;;;;;;128.27;40.92;;;;;;;;;;4987960;28;20120;-71
2022/01/18 09:52:27;;;;;;;149.95;40.00;;;;;;;;;;4987384;28;20727;-70
2022/01/18 09:54:56;;;;;;;144.02;38.92;;;;;;;;;;4987261;28;20060;-69
2022/01/18 09:57:22;;;;;;;160.57;38.97;;;;;;;;;;4986208;28;20048;-69
2022/01/18 09:59:47;;;;;;;203.63;40.28;;;;;;;;;;4987325;28;20030;-70
2022/01/18 10:02:13;;;;;;;145.88;37.08;;;;;;;;;;4988224;28;20625;-71
2022/01/18 10:04:40;;;;;;;142.35;40.78;;;;;;;;;;4987056;28;20101;-70
2022/01/18 10:07:09;;;;;;;204.35;45.20;;;;;;;;;;5002053;28;20034;-69
2022/01/18 10:09:35;;;;;;;286.50;53.22;;;;;;;;;;5001770;28;21724;-70
2022/01/18 10:12:06;;;;;;;411.23;65.57;;;;;;;;;;4987266;28;20038;-70
2022/01/18 10:14:35;;;;;;;336.20;65.77;;;;;;;;;;4986737;28;20037;-70
2022/01/18 10:17:00;;;;;;;357.95;72.90;;;;;;;;;;4987838;28;20272;-70
2022/01/18 10:19:46;;;;;;;190.10;47.78;;;;;;;;;;4990204;28;20057;-70
2022/01/18 10:22:14;;;;;;;197.77;38.15;;;;;;;;;;4987236;28;20255;-70
2022/01/18 10:24:40;;;;;;;155.20;30.50;;;;;;;;;;4991202;28;20473;-70
2022/01/18 10:27:06;;;;;;;236.23;51.92;;;;;;;;;;4986790;28;20025;-70
2022/01/18 10:29:36;;;;;;;213.20;48.25;;;;;;;;;;4986936;28;20026;-70
2022/01/18 10:32:17;;;;;;;226.80;60.60;;;;;;;;;;4987559;28;20052;-70
2022/01/18 10:37:18;;;;;;;553.88;130.07;;;;;;;;;;4986701;28;20029;-69
2022/01/18 10:39:59;;;;;;;708.97;151.70;;;;;;;;;;4987342;28;20048;-70
2022/01/18 10:42:36;;;;;;;880.58;228.98;;;;;;;;;;4987002;28;20026;-69
2022/01/18 10:45:12;;;;;;;680.03;172.63;;;;;;;;;;4994738;28;20103;-69
2022/01/18 10:47:59;;;;;;;762.28;144.75;;;;;;;;;;4991460;28;20014;-70
2022/01/18 10:50:30;;;;;;;481.00;100.38;;;;;;;;;;4990112;28;20022;-70
2022/01/18 10:53:09;;;;;;;215.43;55.00;;;;;;;;;;4988919;28;20119;-70
2022/01/18 10:55:37;;;;;;;220.07;55.53;;;;;;;;;;4991036;28;20443;-70
2022/01/18 10:58:09;;;;;;;230.57;55.47;;;;;;;;;;4989468;28;21879;-69
2022/01/18 11:00:35;;;;;;;;;;;;;;;;;;4979063;28;20689;-70
2022/01/18 11:03:03;;;;;;;204.93;50.08;;;;;;;;;;4990443;28;20384;-70
2022/01/18 11:05:30;;;;;;;150.48;39.33;;;;;;;;;;4990450;28;20022;-70
2022/01/18 11:07:56;;;;;;;232.70;50.92;;;;;;;;;;4991171;28;20506;-69
2022/01/18 11:10:25;;;;;;;206.05;54.88;;;;;;;;;;4991247;28;20337;-71
2022/01/18 11:12:57;;;;;;;204.77;46.92;;;;;;;;;;4990016;28;20045;-70
2022/01/18 11:15:26;;;;;;;167.45;46.88;;;;;;;;;;4990555;28;20045;-70
2022/01/18 11:17:59;;;;;;;158.35;42.25;;;;;;;;;;4989926;28;20639;-70
2022/01/18 11:20:29;;;;;;;238.93;40.38;;;;;;;;;;4989995;28;20030;-70
2022/01/18 11:22:55;;;;;;;168.82;39.80;;;;;;;;;;4989998;28;20153;-71
2022/01/18 11:25:21;;;;;;;160.90;39.50;;;;;;;;;;4989949;28;20037;-71
2022/01/18 11:27:49;;;;;;;157.98;46.53;;;;;;;;;;4990344;28;20041;-71
2022/01/18 11:30:16;;;;;;;181.70;40.85;;;;;;;;;;4994088;28;20037;-71
2022/01/18 11:32:43;;;;;;;207.13;38.42;;;;;;;;;;4990767;28;20052;-70
2022/01/18 11:35:22;;;;;;;133.32;35.20;;;;;;;;;;4989411;28;20065;-70
2022/01/18 11:37:54;;;;;;;167.35;33.45;;;;;;;;;;4990265;28;20073;-70
2022/01/18 11:40:19;;;;;;;189.98;26.63;;;;;;;;;;4989216;28;20034;-70
2022/01/18 11:42:50;;;;;;;169.52;33.78;;;;;;;;;;4989819;28;20052;-71
2022/01/18 11:45:24;;;;;;;221.95;37.17;;;;;;;;;;4989828;28;20025;-71
2022/01/18 11:48:02;;;;;;;252.13;37.67;;;;;;;;;;4977520;28;20109;-70
2022/01/18 11:50:32;;;;;;;234.88;31.80;;;;;;;;;;4988014;28;20019;-70
2022/01/18 11:52:59;;;;;;;;;;;;;;;;;;4993767;28;20120;-70
2022/01/18 11:55:37;;;;;;;208.54;31.90;;;;;;;;;;4989078;28;21338;-71
2022/01/18 11:58:12;;;;;;;250.07;27.42;;;;;;;;;;4977361;28;20037;-71
2022/01/18 12:00:52;;;;;;;193.57;27.13;;;;;;;;;;4989094;28;20096;-71
2022/01/18 12:03:18;;;;;;;207.63;31.02;;;;;;;;;;4989109;28;20026;-71
2022/01/18 12:05:46;;;;;;;140.82;21.83;;;;;;;;;;4989445;28;20445;-70
2022/01/18 12:08:28;;;;;;;163.40;22.83;;;;;;;;;;4989091;28;20038;-71
2022/01/18 12:10:53;;;;;;;197.20;24.17;;;;;;;;;;4993846;28;20116;-71
2022/01/18 12:13:26;;;;;;;173.30;21.88;;;;;;;;;;4987671;28;20365;-71
2022/01/18 12:15:56;;;;;;;265.77;23.73;;;;;;;;;;4989899;28;20493;-71
2022/01/18 12:18:24;;;;;;;195.82;31.05;;;;;;;;;;4988251;28;20048;-71
2022/01/18 12:20:50;;;;;;;271.27;30.60;;;;;;;;;;4987388;28;20099;-72
2022/01/18 12:23:18;;;;;;;257.80;24.27;;;;;;;;;;4989047;28;20151;-69
2022/01/18 12:25:55;;;;;;;279.67;22.25;;;;;;;;;;4993407;28;20034;-70
2022/01/18 12:34:29;;;;;;;212.68;25.08;;;;;;;;;;4988580;28;20111;-70
2022/01/18 12:37:24;;;;;;;159.70;20.38;;;;;;;;;;4989181;28;20061;-71
2022/01/18 12:39:49;;;;;;;179.85;25.35;;;;;;;;;;4992804;28;20042;-71
2022/01/18 12:44:20;;;;;;;223.18;31.83;;;;;;;;;;4988676;28;20056;-70
2022/01/18 12:45:02;;;;;;;183.38;30.85;;;;;;;;;;4987898;28;20029;-71
2022/01/18 12:47:29;;;;;;;208.90;28.52;;;;;;;;;;4988942;28;20026;-70
2022/01/18 12:49:55;;;;;;;144.13;28.88;;;;;;;;;;4988301;28;20072;-70
2022/01/18 12:52:23;;;;;;;199.18;31.38;;;;;;;;;;4989082;28;20122;-70
2022/01/18 12:54:48;;;;;;;233.85;34.00;;;;;;;;;;4987507;28;20496;-70
2022/01/18 12:57:16;;;;;;;246.75;31.35;;;;;;;;;;5002711;28;20092;-72
2022/01/18 12:59:56;;;;;;;183.70;21.75;;;;;;;;;;4988669;28;20041;-73
2022/01/18 13:02:27;;;;;;;252.10;22.35;;;;;;;;;;4988856;28;20022;-70
2022/01/18 13:04:56;;;;;;;193.23;30.83;;;;;;;;;;4987482;28;20295;-70
2022/01/18 13:07:22;;;;;;;283.75;30.23;;;;;;;;;;4991669;28;20033;-70
2022/01/18 13:09:59;;;;;;;225.13;27.50;;;;;;;;;;4987964;28;20026;-70
2022/01/18 13:12:39;;;;;;;229.98;23.77;;;;;;;;;;4987851;28;20053;-69
2022/01/18 13:15:08;;;;;;;155.02;22.95;;;;;;;;;;4992804;28;20033;-69
2022/01/18 13:23:16;;;;;;;190.27;24.38;;;;;;;;;;4987615;28;20054;-70
2022/01/18 13:25:55;;;;;;;221.35;24.27;;;;;;;;;;4988893;28;20056;-70
2022/01/18 13:28:38;;;;;;;169.13;21.73;;;;;;;;;;4987472;28;20037;-71
2022/01/18 13:31:18;;;;;;;257.52;28.40;;;;;;;;;;4988131;28;20113;-69
2022/01/18 13:33:58;;;;;;;169.35;24.92;;;;;;;;;;4987671;28;20049;-70
2022/01/18 13:36:28;;;;;;;300.15;41.70;;;;;;;;;;4975965;28;20145;-70
2022/01/18 13:38:56;;;;;;;222.43;32.63;;;;;;;;;;4987801;28;20058;-70
2022/01/18 13:41:21;;;;;;;309.33;37.28;;;;;;;;;;4987489;28;20025;-72
2022/01/18 13:43:47;;;;;;;241.38;32.83;;;;;;;;;;4987582;28;20026;-71
2022/01/18 13:46:22;;;;;;;229.73;25.45;;;;;;;;;;5003566;28;20038;-70
2022/01/18 13:49:02;;;;;;;237.70;25.95;;;;;;;;;;4991585;28;20130;-70
2022/01/18 13:51:30;;;;;;;218.48;25.27;;;;;;;;;;4987973;28;21827;-70
2022/01/18 13:53:59;;;;;;;172.82;22.77;;;;;;;;;;4991583;28;20549;-69
2022/01/18 13:56:26;;;;;;;220.93;26.67;;;;;;;;;;4990811;28;20030;-70
2022/01/18 13:59:03;;;;;;;169.20;25.95;;;;;;;;;;4987839;28;20038;-70
2022/01/18 14:01:35;;;;;;;143.70;22.52;;;;;;;;;;4987942;28;20062;-69
2022/01/18 14:04:13;;;;;;;156.80;23.33;;;;;;;;;;4985999;28;20366;-69
2022/01/18 14:06:39;;;;;;;150.07;20.20;;;;;;;;;;4990946;28;20034;-69
2022/01/18 14:09:07;;;;;;;104.45;19.73;;;;;;;;;;5001957;28;20040;-69
2022/01/18 14:11:35;;;;;;;94.80;18.33;;;;;;;;;;4991431;28;20044;-69
2022/01/18 14:14:04;;;;;;;127.35;20.67;;;;;;;;;;4985882;28;20078;-70
2022/01/18 14:16:32;;;;;;;118.53;18.63;;;;;;;;;;4987384;28;20058;-69
2022/01/18 14:18:57;;;;;;;141.23;18.52;;;;;;;;;;4986387;28;20045;-70
2022/01/18 14:21:28;;;;;;;135.95;17.40;;;;;;;;;;4985872;28;20069;-70
2022/01/18 14:24:08;;;;;;;124.95;18.20;;;;;;;;;;4990401;28;20449;-69
2022/01/18 14:26:37;;;;;;;118.45;16.25;;;;;;;;;;4987298;28;20033;-70
2022/01/18 14:29:03;;;;;;;121.28;16.05;;;;;;;;;;4985479;28;20029;-70
2022/01/18 14:31:29;;;;;;;119.22;16.05;;;;;;;;;;4987588;28;20037;-70
2022/01/18 14:33:56;;;;;;;140.73;15.45;;;;;;;;;;4985937;28;20498;-69
2022/01/18 14:36:24;;;;;;;88.10;13.63;;;;;;;;;;5001484;28;20381;-70
2022/01/18 14:39:03;;;;;;;123.57;14.90;;;;;;;;;;4986213;28;20042;-69
2022/01/18 14:41:30;;;;;;;130.73;15.48;;;;;;;;;;4986853;28;20500;-70
2022/01/18 14:44:03;;;;;;;111.45;15.27;;;;;;;;;;4962999;28;20454;-69
2022/01/18 14:46:47;;;;;;;162.15;14.88;;;;;;;;;;4987126;28;20485;-70
2022/01/18 14:49:13;;;;;;;88.13;12.02;;;;;;;;;;4986201;28;20261;-71
2022/01/18 14:51:42;;;;;;;139.63;13.15;;;;;;;;;;4988033;28;20036;-70
2022/01/18 14:54:07;;;;;;;149.57;15.15;;;;;;;;;;4990539;28;20068;-71
2022/01/18 14:56:35;;;;;;;163.20;16.10;;;;;;;;;;4986458;28;20564;-70
2022/01/18 14:59:02;;;;;;;115.90;13.05;;;;;;;;;;4987082;28;20769;-71
2022/01/18 15:01:28;;;;;;;128.38;12.43;;;;;;;;;;4985519;28;20034;-70
2022/01/18 15:03:56;;;;;;;179.35;15.50;;;;;;;;;;4986185;28;20044;-71
2022/01/18 15:06:21;;;;;;;160.05;13.82;;;;;;;;;;4986371;28;20494;-70
2022/01/18 15:08:46;;;;;;;78.28;12.95;;;;;;;;;;4985490;28;20125;-70
2022/01/18 15:11:11;;;;;;;98.40;14.88;;;;;;;;;;4990698;28;20018;-70
2022/01/18 15:13:37;;;;;;;103.43;12.73;;;;;;;;;;4986633;28;20049;-69
2022/01/18 15:16:02;;;;;;;147.98;14.13;;;;;;;;;;4986792;28;20034;-70
2022/01/18 15:18:28;;;;;;;123.90;14.75;;;;;;;;;;4987039;28;20034;-71
2022/01/18 15:20:54;;;;;;;159.82;15.60;;;;;;;;;;4986315;28;20073;-70
2022/01/18 15:23:19;;;;;;;162.85;15.98;;;;;;;;;;4986587;28;20129;-70
2022/01/18 15:25:44;;;;;;;168.90;15.55;;;;;;;;;;4986577;28;20029;-69
2022/01/18 15:28:10;;;;;;;116.13;14.02;;;;;;;;;;4986762;28;20117;-70
2022/01/18 15:30:38;;;;;;;165.60;16.25;;;;;;;;;;5004961;28;20478;-70
2022/01/18 15:33:06;;;;;;;175.88;16.30;;;;;;;;;;4990340;28;20510;-70
2022/01/18 15:35:31;;;;;;;174.05;14.98;;;;;;;;;;4994128;28;20038;-70
2022/01/18 15:37:57;;;;;;;146.20;16.05;;;;;;;;;;4990050;28;20037;-70
2022/01/18 15:40:22;;;;;;;112.38;15.07;;;;;;;;;;4989480;28;20045;-69
2022/01/18 15:42:50;;;;;;;111.80;14.05;;;;;;;;;;4993546;28;20519;-70
2022/01/18 15:45:18;;;;;;;89.97;13.43;;;;;;;;;;4978798;28;20508;-69
2022/01/18 15:47:45;;;;;;;112.03;15.02;;;;;;;;;;4989783;28;20033;-70
2022/01/18 15:50:11;;;;;;;127.00;16.02;;;;;;;;;;4990243;28;20319;-71
2022/01/18 15:52:37;;;;;;;135.85;16.00;;;;;;;;;;4990282;28;20191;-70